sensor_id;sensor_type;location;lat;lon;timestamp;pressure;altitude;pressure_sealevel;temperature;humidity
68376;BME280;55318;52.068;5.188;2022-12-10T00:02:54;100878.0;;;1.69;90.93
68376;BME280;55318;52.068;5.188;2022-12-10T00:04:30;100883.0;;;1.76;90.66
68376;BME280;55318;52.068;5.188;2022-12-10T00:06:09;100880.0;;;1.87;90.02
68376;BME280;55318;52.068;5.188;2022-12-10T00:07:47;100877.0;;;1.85;89.94
68376;BME280;55318;52.068;5.188;2022-12-10T00:11:02;100877.0;;;1.89;89.88
68376;BME280;55318;52.068;5.188;2022-12-10T00:12:40;100880.0;;;1.71;90.3
68376;BME280;55318;52.068;5.188;2022-12-10T00:14:16;100876.0;;;1.57;90.89
68376;BME280;55318;52.068;5.188;2022-12-10T00:17:29;100873.0;;;1.63;90.8
68376;BME280;55318;52.068;5.188;2022-12-10T00:20:43;100876.0;;;1.67;90.48
68376;BME280;55318;52.068;5.188;2022-12-10T00:25:33;100869.0;;;1.77;90.1
68376;BME280;55318;52.068;5.188;2022-12-10T00:27:10;100872.0;;;1.76;90.01
68376;BME280;55318;52.068;5.188;2022-12-10T00:28:47;100876.0;;;1.73;89.95
68376;BME280;55318;52.068;5.188;2022-12-10T00:32:05;100876.0;;;1.74;89.64
68376;BME280;55318;52.068;5.188;2022-12-10T00:33:43;100875.0;;;1.62;89.75
68376;BME280;55318;52.068;5.188;2022-12-10T00:35:20;100880.0;;;1.73;89.7
68376;BME280;55318;52.068;5.188;2022-12-10T00:41:48;100891.0;;;1.55;90.07
68376;BME280;55318;52.068;5.188;2022-12-10T00:43:25;100882.0;;;1.63;90.15
68376;BME280;55318;52.068;5.188;2022-12-10T00:46:37;100881.0;;;1.64;89.86
68376;BME280;55318;52.068;5.188;2022-12-10T00:49:50;100886.0;;;1.59;89.98
68376;BME280;55318;52.068;5.188;2022-12-10T00:53:03;100890.0;;;1.67;90.07
68376;BME280;55318;52.068;5.188;2022-12-10T00:54:40;100897.0;;;1.67;89.91
68376;BME280;55318;52.068;5.188;2022-12-10T00:59:28;100899.0;;;1.69;90.04
68376;BME280;55318;52.068;5.188;2022-12-10T01:02:46;100898.0;;;1.56;90.33
68376;BME280;55318;52.068;5.188;2022-12-10T01:04:22;100899.0;;;1.45;91.35
68376;BME280;55318;52.068;5.188;2022-12-10T01:07:44;100896.0;;;1.51;90.97
68376;BME280;55318;52.068;5.188;2022-12-10T01:09:24;100900.0;;;1.51;90.78
68376;BME280;55318;52.068;5.188;2022-12-10T01:11:01;100897.0;;;1.57;90.77
68376;BME280;55318;52.068;5.188;2022-12-10T01:12:37;100902.0;;;1.47;91.14
68376;BME280;55318;52.068;5.188;2022-12-10T01:15:53;100909.0;;;1.51;90.99
68376;BME280;55318;52.068;5.188;2022-12-10T01:17:30;100905.0;;;1.48;91.59
68376;BME280;55318;52.068;5.188;2022-12-10T01:19:06;100906.0;;;1.55;91.32
68376;BME280;55318;52.068;5.188;2022-12-10T01:22:19;100907.0;;;1.67;90.7
68376;BME280;55318;52.068;5.188;2022-12-10T01:23:56;100911.0;;;1.53;90.88
68376;BME280;55318;52.068;5.188;2022-12-10T01:25:33;100911.0;;;1.46;91.43
68376;BME280;55318;52.068;5.188;2022-12-10T01:27:10;100913.0;;;1.55;91.1
68376;BME280;55318;52.068;5.188;2022-12-10T01:30:23;100909.0;;;1.59;90.88
68376;BME280;55318;52.068;5.188;2022-12-10T01:31:59;100907.0;;;1.53;90.94
68376;BME280;55318;52.068;5.188;2022-12-10T01:33:36;100910.0;;;1.63;90.53
68376;BME280;55318;52.068;5.188;2022-12-10T01:36:50;100909.0;;;1.48;90.84
68376;BME280;55318;52.068;5.188;2022-12-10T01:38:28;100915.0;;;1.6;90.81
68376;BME280;55318;52.068;5.188;2022-12-10T01:40:05;100911.0;;;1.56;90.89
68376;BME280;55318;52.068;5.188;2022-12-10T01:43:21;100917.0;;;1.57;91.12
68376;BME280;55318;52.068;5.188;2022-12-10T01:45:03;100919.0;;;1.57;91.16
68376;BME280;55318;52.068;5.188;2022-12-10T01:46:43;100921.0;;;1.44;91.85
68376;BME280;55318;52.068;5.188;2022-12-10T01:48:21;100927.0;;;1.55;91.8
68376;BME280;55318;52.068;5.188;2022-12-10T01:51:38;100926.0;;;1.45;91.91
68376;BME280;55318;52.068;5.188;2022-12-10T01:53:15;100931.0;;;1.55;91.68
68376;BME280;55318;52.068;5.188;2022-12-10T01:54:51;100933.0;;;1.62;91.65
68376;BME280;55318;52.068;5.188;2022-12-10T01:56:28;100933.0;;;1.6;91.64
68376;BME280;55318;52.068;5.188;2022-12-10T01:59:47;100935.0;;;1.53;91.81
68376;BME280;55318;52.068;5.188;2022-12-10T02:01:29;100932.0;;;1.55;91.72
68376;BME280;55318;52.068;5.188;2022-12-10T02:03:19;100933.0;;;1.54;91.66
68376;BME280;55318;52.068;5.188;2022-12-10T02:05:11;100928.0;;;1.51;91.8
68376;BME280;55318;52.068;5.188;2022-12-10T02:06:55;100930.0;;;1.55;91.84
68376;BME280;55318;52.068;5.188;2022-12-10T02:10:30;100937.0;;;1.42;92.23
68376;BME280;55318;52.068;5.188;2022-12-10T02:12:16;100939.0;;;1.44;92.38
68376;BME280;55318;52.068;5.188;2022-12-10T02:13:59;100939.0;;;1.46;92.7
68376;BME280;55318;52.068;5.188;2022-12-10T02:15:44;100938.0;;;1.5;92.58
68376;BME280;55318;52.068;5.188;2022-12-10T02:17:26;100936.0;;;1.56;92.03
68376;BME280;55318;52.068;5.188;2022-12-10T02:21:00;100933.0;;;1.5;92.14
68376;BME280;55318;52.068;5.188;2022-12-10T02:22:44;100932.0;;;1.48;92.19
68376;BME280;55318;52.068;5.188;2022-12-10T02:24:25;100934.0;;;1.47;92.44
68376;BME280;55318;52.068;5.188;2022-12-10T02:26:11;100937.0;;;1.53;92.13
68376;BME280;55318;52.068;5.188;2022-12-10T02:27:54;100930.0;;;1.6;91.87
68376;BME280;55318;52.068;5.188;2022-12-10T02:31:17;100931.0;;;1.57;91.85
68376;BME280;55318;52.068;5.188;2022-12-10T02:32:56;100930.0;;;1.67;91.58
68376;BME280;55318;52.068;5.188;2022-12-10T02:34:37;100927.0;;;1.58;91.74
68376;BME280;55318;52.068;5.188;2022-12-10T02:36:18;100927.0;;;1.58;92.18
68376;BME280;55318;52.068;5.188;2022-12-10T02:39:53;100933.0;;;1.57;91.96
68376;BME280;55318;52.068;5.188;2022-12-10T02:41:33;100939.0;;;1.68;91.65
68376;BME280;55318;52.068;5.188;2022-12-10T02:43:12;100944.0;;;1.5;91.71
68376;BME280;55318;52.068;5.188;2022-12-10T02:44:50;100940.0;;;1.53;92.05
68376;BME280;55318;52.068;5.188;2022-12-10T02:48:08;100938.0;;;1.43;92.51
68376;BME280;55318;52.068;5.188;2022-12-10T02:49:47;100936.0;;;1.46;92.53
68376;BME280;55318;52.068;5.188;2022-12-10T02:51:25;100936.0;;;1.42;92.83
68376;BME280;55318;52.068;5.188;2022-12-10T02:53:01;100936.0;;;1.39;93.16
68376;BME280;55318;52.068;5.188;2022-12-10T02:56:23;100930.0;;;1.58;92.4
68376;BME280;55318;52.068;5.188;2022-12-10T02:58:10;100930.0;;;1.52;92.82
68376;BME280;55318;52.068;5.188;2022-12-10T03:00:04;100931.0;;;1.62;92.56
68376;BME280;55318;52.068;5.188;2022-12-10T03:01:47;100931.0;;;1.6;92.48
68376;BME280;55318;52.068;5.188;2022-12-10T03:03:38;100933.0;;;1.62;92.68
68376;BME280;55318;52.068;5.188;2022-12-10T03:07:08;100933.0;;;1.55;92.53
68376;BME280;55318;52.068;5.188;2022-12-10T03:08:49;100934.0;;;1.59;92.6
68376;BME280;55318;52.068;5.188;2022-12-10T03:10:33;100935.0;;;1.5;92.76
68376;BME280;55318;52.068;5.188;2022-12-10T03:12:16;100933.0;;;1.6;92.94
68376;BME280;55318;52.068;5.188;2022-12-10T03:14:00;100932.0;;;1.52;92.94
68376;BME280;55318;52.068;5.188;2022-12-10T03:17:19;100930.0;;;1.45;93.03
68376;BME280;55318;52.068;5.188;2022-12-10T03:19:00;100928.0;;;1.51;93.0
68376;BME280;55318;52.068;5.188;2022-12-10T03:20:39;100928.0;;;1.46;93.47
68376;BME280;55318;52.068;5.188;2022-12-10T03:22:19;100927.0;;;1.57;93.41
68376;BME280;55318;52.068;5.188;2022-12-10T03:25:33;100931.0;;;1.6;92.96
68376;BME280;55318;52.068;5.188;2022-12-10T03:27:12;100930.0;;;1.59;93.11
68376;BME280;55318;52.068;5.188;2022-12-10T03:28:56;100925.0;;;1.63;92.93
68376;BME280;55318;52.068;5.188;2022-12-10T03:30:35;100918.0;;;1.59;93.51
68376;BME280;55318;52.068;5.188;2022-12-10T03:33:55;100924.0;;;1.7;93.17
68376;BME280;55318;52.068;5.188;2022-12-10T03:35:32;100920.0;;;1.71;92.93
68376;BME280;55318;52.068;5.188;2022-12-10T03:37:09;100921.0;;;1.79;92.6
68376;BME280;55318;52.068;5.188;2022-12-10T03:40:24;100924.0;;;1.82;92.69
68376;BME280;55318;52.068;5.188;2022-12-10T03:42:01;100921.0;;;1.8;92.83
68376;BME280;55318;52.068;5.188;2022-12-10T03:43:50;100917.0;;;1.94;92.48
68376;BME280;55318;52.068;5.188;2022-12-10T03:45:26;100920.0;;;1.99;92.2
68376;BME280;55318;52.068;5.188;2022-12-10T03:48:42;100914.0;;;1.77;92.62
68376;BME280;55318;52.068;5.188;2022-12-10T03:50:18;100917.0;;;1.78;93.1
68376;BME280;55318;52.068;5.188;2022-12-10T03:51:54;100920.0;;;1.93;92.91
68376;BME280;55318;52.068;5.188;2022-12-10T03:53:30;100930.0;;;1.98;92.66
68376;BME280;55318;52.068;5.188;2022-12-10T03:56:44;100927.0;;;1.74;93.15
68376;BME280;55318;52.068;5.188;2022-12-10T03:58:20;100927.0;;;1.79;93.77
68376;BME280;55318;52.068;5.188;2022-12-10T03:59:56;100917.0;;;1.77;93.46
68376;BME280;55318;52.068;5.188;2022-12-10T04:03:08;100921.0;;;1.59;94.33
68376;BME280;55318;52.068;5.188;2022-12-10T04:04:44;100918.0;;;1.67;94.2
68376;BME280;55318;52.068;5.188;2022-12-10T04:06:21;100924.0;;;1.79;93.59
68376;BME280;55318;52.068;5.188;2022-12-10T04:09:33;100925.0;;;1.78;93.92
68376;BME280;55318;52.068;5.188;2022-12-10T04:11:10;100928.0;;;1.59;94.7
68376;BME280;55318;52.068;5.188;2022-12-10T04:16:27;100924.0;;;1.66;94.18
68376;BME280;55318;52.068;5.188;2022-12-10T04:18:05;100920.0;;;1.8;93.74
68376;BME280;55318;52.068;5.188;2022-12-10T04:19:42;100926.0;;;1.71;93.76
68376;BME280;55318;52.068;5.188;2022-12-10T04:26:53;100933.0;;;1.67;94.55
68376;BME280;55318;52.068;5.188;2022-12-10T04:29:08;100925.0;;;1.73;93.61
68376;BME280;55318;52.068;5.188;2022-12-10T04:32:23;100926.0;;;1.65;94.14
68376;BME280;55318;52.068;5.188;2022-12-10T04:34:00;100931.0;;;1.65;94.21
68376;BME280;55318;52.068;5.188;2022-12-10T04:35:36;100930.0;;;1.68;94.34
68376;BME280;55318;52.068;5.188;2022-12-10T04:38:50;100937.0;;;1.6;94.1
68376;BME280;55318;52.068;5.188;2022-12-10T04:40:26;100936.0;;;1.56;94.15
68376;BME280;55318;52.068;5.188;2022-12-10T04:42:03;100932.0;;;1.51;94.05
68376;BME280;55318;52.068;5.188;2022-12-10T04:45:15;100930.0;;;1.46;94.07
68376;BME280;55318;52.068;5.188;2022-12-10T04:46:51;100932.0;;;1.58;93.8
68376;BME280;55318;52.068;5.188;2022-12-10T04:48:28;100937.0;;;1.49;93.29
68376;BME280;55318;52.068;5.188;2022-12-10T04:50:05;100935.0;;;1.69;93.22
68376;BME280;55318;52.068;5.188;2022-12-10T04:53:18;100937.0;;;1.44;93.58
68376;BME280;55318;52.068;5.188;2022-12-10T04:54:54;100935.0;;;1.32;93.86
68376;BME280;55318;52.068;5.188;2022-12-10T04:56:31;100942.0;;;1.55;93.56
68376;BME280;55318;52.068;5.188;2022-12-10T04:59:44;100945.0;;;1.41;93.7
68376;BME280;55318;52.068;5.188;2022-12-10T05:01:20;100939.0;;;1.38;93.9
68376;BME280;55318;52.068;5.188;2022-12-10T05:02:56;100942.0;;;1.23;94.26
68376;BME280;55318;52.068;5.188;2022-12-10T05:06:13;100939.0;;;1.3;94.32
68376;BME280;55318;52.068;5.188;2022-12-10T05:07:50;100943.0;;;1.35;93.98
68376;BME280;55318;52.068;5.188;2022-12-10T05:09:26;100941.0;;;1.43;93.6
68376;BME280;55318;52.068;5.188;2022-12-10T05:11:05;100939.0;;;1.43;93.69
68376;BME280;55318;52.068;5.188;2022-12-10T05:14:19;100936.0;;;1.54;93.45
68376;BME280;55318;52.068;5.188;2022-12-10T05:15:55;100935.0;;;1.52;93.65
68376;BME280;55318;52.068;5.188;2022-12-10T05:17:33;100936.0;;;1.47;93.54
68376;BME280;55318;52.068;5.188;2022-12-10T05:20:46;100941.0;;;1.5;93.86
68376;BME280;55318;52.068;5.188;2022-12-10T05:23:30;100940.0;;;1.54;93.64
68376;BME280;55318;52.068;5.188;2022-12-10T05:25:20;100937.0;;;1.59;93.33
68376;BME280;55318;52.068;5.188;2022-12-10T05:26:57;100940.0;;;1.67;93.33
68376;BME280;55318;52.068;5.188;2022-12-10T05:28:35;100940.0;;;1.58;93.38
68376;BME280;55318;52.068;5.188;2022-12-10T05:30:12;100939.0;;;1.61;93.31
68376;BME280;55318;52.068;5.188;2022-12-10T05:33:26;100940.0;;;1.68;92.99
68376;BME280;55318;52.068;5.188;2022-12-10T05:35:04;100938.0;;;1.67;93.05
68376;BME280;55318;52.068;5.188;2022-12-10T05:36:41;100939.0;;;1.7;93.04
68376;BME280;55318;52.068;5.188;2022-12-10T05:38:17;100937.0;;;1.52;93.29
68376;BME280;55318;52.068;5.188;2022-12-10T05:41:33;100938.0;;;1.54;93.16
68376;BME280;55318;52.068;5.188;2022-12-10T05:43:09;100945.0;;;1.6;92.97
68376;BME280;55318;52.068;5.188;2022-12-10T05:44:46;100946.0;;;1.44;92.85
68376;BME280;55318;52.068;5.188;2022-12-10T05:48:04;100948.0;;;1.54;93.16
68376;BME280;55318;52.068;5.188;2022-12-10T05:49:41;100951.0;;;1.53;93.35
68376;BME280;55318;52.068;5.188;2022-12-10T05:51:19;100955.0;;;1.42;93.77
68376;BME280;55318;52.068;5.188;2022-12-10T05:54:33;100958.0;;;1.52;93.4
68376;BME280;55318;52.068;5.188;2022-12-10T05:56:10;100956.0;;;1.51;93.52
68376;BME280;55318;52.068;5.188;2022-12-10T05:57:48;100951.0;;;1.54;93.3
68376;BME280;55318;52.068;5.188;2022-12-10T05:59:24;100947.0;;;1.54;93.21
68376;BME280;55318;52.068;5.188;2022-12-10T06:02:43;100955.0;;;1.51;93.49
68376;BME280;55318;52.068;5.188;2022-12-10T06:04:20;100955.0;;;1.57;93.56
68376;BME280;55318;52.068;5.188;2022-12-10T06:05:56;100955.0;;;1.54;93.34
68376;BME280;55318;52.068;5.188;2022-12-10T06:07:32;100952.0;;;1.66;93.18
68376;BME280;55318;52.068;5.188;2022-12-10T06:10:49;100950.0;;;1.69;93.25
68376;BME280;55318;52.068;5.188;2022-12-10T06:12:25;100956.0;;;1.5;93.81
68376;BME280;55318;52.068;5.188;2022-12-10T06:14:02;100957.0;;;1.73;93.31
68376;BME280;55318;52.068;5.188;2022-12-10T06:17:17;100958.0;;;1.67;93.62
68376;BME280;55318;52.068;5.188;2022-12-10T06:18:53;100964.0;;;1.56;93.74
68376;BME280;55318;52.068;5.188;2022-12-10T06:20:30;100959.0;;;1.47;94.21
68376;BME280;55318;52.068;5.188;2022-12-10T06:22:07;100962.0;;;1.49;94.0
68376;BME280;55318;52.068;5.188;2022-12-10T06:25:21;100964.0;;;1.59;93.84
68376;BME280;55318;52.068;5.188;2022-12-10T06:26:57;100960.0;;;1.62;93.5
68376;BME280;55318;52.068;5.188;2022-12-10T06:28:33;100955.0;;;1.49;93.88
68376;BME280;55318;52.068;5.188;2022-12-10T06:31:48;100957.0;;;1.51;93.63
68376;BME280;55318;52.068;5.188;2022-12-10T06:33:24;100963.0;;;1.55;93.85
68376;BME280;55318;52.068;5.188;2022-12-10T06:35:00;100966.0;;;1.58;93.53
68376;BME280;55318;52.068;5.188;2022-12-10T06:38:13;100969.0;;;1.45;94.19
68376;BME280;55318;52.068;5.188;2022-12-10T06:39:50;100971.0;;;1.58;94.08
68376;BME280;55318;52.068;5.188;2022-12-10T06:41:27;100975.0;;;1.58;93.96
68376;BME280;55318;52.068;5.188;2022-12-10T06:43:03;100975.0;;;1.68;93.98
68376;BME280;55318;52.068;5.188;2022-12-10T06:46:17;100971.0;;;1.49;93.98
68376;BME280;55318;52.068;5.188;2022-12-10T06:47:54;100976.0;;;1.73;93.86
68376;BME280;55318;52.068;5.188;2022-12-10T06:49:30;100971.0;;;1.6;93.65
68376;BME280;55318;52.068;5.188;2022-12-10T06:52:43;100971.0;;;1.46;93.56
68376;BME280;55318;52.068;5.188;2022-12-10T06:54:20;100972.0;;;1.62;93.91
68376;BME280;55318;52.068;5.188;2022-12-10T06:55:57;100972.0;;;1.59;93.38
68376;BME280;55318;52.068;5.188;2022-12-10T06:59:10;100975.0;;;1.44;93.57
68376;BME280;55318;52.068;5.188;2022-12-10T07:00:46;100984.0;;;1.29;93.99
68376;BME280;55318;52.068;5.188;2022-12-10T07:02:22;100985.0;;;1.24;94.33
68376;BME280;55318;52.068;5.188;2022-12-10T07:03:58;100989.0;;;1.16;94.73
68376;BME280;55318;52.068;5.188;2022-12-10T07:07:10;100995.0;;;1.17;94.72
68376;BME280;55318;52.068;5.188;2022-12-10T07:08:46;101000.0;;;1.21;94.5
68376;BME280;55318;52.068;5.188;2022-12-10T07:10:23;101005.0;;;1.1;94.75
68376;BME280;55318;52.068;5.188;2022-12-10T07:13:36;101005.0;;;1.25;94.55
68376;BME280;55318;52.068;5.188;2022-12-10T07:15:13;101003.0;;;1.12;94.54
68376;BME280;55318;52.068;5.188;2022-12-10T07:16:50;101003.0;;;1.07;94.69
68376;BME280;55318;52.068;5.188;2022-12-10T07:20:05;101005.0;;;1.06;94.61
68376;BME280;55318;52.068;5.188;2022-12-10T07:21:42;101001.0;;;1.19;94.39
68376;BME280;55318;52.068;5.188;2022-12-10T07:23:20;101005.0;;;1.16;94.37
68376;BME280;55318;52.068;5.188;2022-12-10T07:24:57;101013.0;;;1.26;94.13
68376;BME280;55318;52.068;5.188;2022-12-10T07:28:12;101011.0;;;1.14;93.8
68376;BME280;55318;52.068;5.188;2022-12-10T07:29:49;101016.0;;;1.02;94.39
68376;BME280;55318;52.068;5.188;2022-12-10T07:31:26;101012.0;;;1.26;93.91
68376;BME280;55318;52.068;5.188;2022-12-10T07:34:40;101020.0;;;1.34;93.4
68376;BME280;55318;52.068;5.188;2022-12-10T07:36:16;101022.0;;;1.28;93.41
68376;BME280;55318;52.068;5.188;2022-12-10T07:37:53;101023.0;;;1.38;93.49
68376;BME280;55318;52.068;5.188;2022-12-10T07:39:29;101022.0;;;1.46;93.0
68376;BME280;55318;52.068;5.188;2022-12-10T07:42:44;101022.0;;;1.25;93.49
68376;BME280;55318;52.068;5.188;2022-12-10T07:44:23;101026.0;;;1.38;93.73
68376;BME280;55318;52.068;5.188;2022-12-10T07:46:03;101027.0;;;1.36;93.65
68376;BME280;55318;52.068;5.188;2022-12-10T07:49:16;101023.0;;;1.44;93.83
68376;BME280;55318;52.068;5.188;2022-12-10T07:50:55;101020.0;;;1.2;94.22
68376;BME280;55318;52.068;5.188;2022-12-10T07:52:32;101026.0;;;1.29;94.48
68376;BME280;55318;52.068;5.188;2022-12-10T07:54:08;101025.0;;;1.28;94.34
68376;BME280;55318;52.068;5.188;2022-12-10T07:57:21;101026.0;;;1.27;94.08
68376;BME280;55318;52.068;5.188;2022-12-10T07:58:57;101030.0;;;1.44;93.95
68376;BME280;55318;52.068;5.188;2022-12-10T08:00:33;101031.0;;;1.47;93.15
68376;BME280;55318;52.068;5.188;2022-12-10T08:03:45;101033.0;;;1.41;93.52
68376;BME280;55318;52.068;5.188;2022-12-10T08:05:21;101034.0;;;1.43;93.49
68376;BME280;55318;52.068;5.188;2022-12-10T08:06:57;101032.0;;;1.32;93.24
68376;BME280;55318;52.068;5.188;2022-12-10T08:10:10;101031.0;;;1.3;93.1
68376;BME280;55318;52.068;5.188;2022-12-10T08:11:46;101031.0;;;1.27;93.06
68376;BME280;55318;52.068;5.188;2022-12-10T08:13:22;101022.0;;;1.27;92.73
68376;BME280;55318;52.068;5.188;2022-12-10T08:16:35;101026.0;;;1.21;92.84
68376;BME280;55318;52.068;5.188;2022-12-10T08:18:11;101027.0;;;1.2;93.02
68376;BME280;55318;52.068;5.188;2022-12-10T08:19:47;101026.0;;;1.22;92.91
68376;BME280;55318;52.068;5.188;2022-12-10T08:21:25;101033.0;;;1.17;93.6
68376;BME280;55318;52.068;5.188;2022-12-10T08:24:40;101037.0;;;1.13;93.59
68376;BME280;55318;52.068;5.188;2022-12-10T08:26:17;101040.0;;;1.12;93.53
68376;BME280;55318;52.068;5.188;2022-12-10T08:27:57;101046.0;;;1.22;93.22
68376;BME280;55318;52.068;5.188;2022-12-10T08:31:10;101044.0;;;1.21;93.41
68376;BME280;55318;52.068;5.188;2022-12-10T08:32:48;101050.0;;;1.17;93.87
68376;BME280;55318;52.068;5.188;2022-12-10T08:34:24;101055.0;;;0.99;94.31
68376;BME280;55318;52.068;5.188;2022-12-10T08:36:01;101050.0;;;1.13;93.98
68376;BME280;55318;52.068;5.188;2022-12-10T08:39:16;101058.0;;;1.0;94.19
68376;BME280;55318;52.068;5.188;2022-12-10T08:40:53;101059.0;;;0.87;94.04
68376;BME280;55318;52.068;5.188;2022-12-10T08:42:30;101063.0;;;0.86;94.47
68376;BME280;55318;52.068;5.188;2022-12-10T08:45:42;101064.0;;;0.82;94.21
68376;BME280;55318;52.068;5.188;2022-12-10T08:47:18;101069.0;;;0.97;94.26
68376;BME280;55318;52.068;5.188;2022-12-10T08:48:55;101072.0;;;0.79;94.36
68376;BME280;55318;52.068;5.188;2022-12-10T08:52:07;101075.0;;;0.93;94.39
68376;BME280;55318;52.068;5.188;2022-12-10T08:53:44;101073.0;;;0.98;94.44
68376;BME280;55318;52.068;5.188;2022-12-10T08:55:20;101077.0;;;0.96;94.03
68376;BME280;55318;52.068;5.188;2022-12-10T08:56:56;101072.0;;;0.85;94.34
68376;BME280;55318;52.068;5.188;2022-12-10T09:00:10;101075.0;;;0.97;94.09
68376;BME280;55318;52.068;5.188;2022-12-10T09:01:47;101078.0;;;0.87;94.37
68376;BME280;55318;52.068;5.188;2022-12-10T09:03:24;101080.0;;;0.91;94.58
68376;BME280;55318;52.068;5.188;2022-12-10T09:06:37;101080.0;;;0.88;94.51
68376;BME280;55318;52.068;5.188;2022-12-10T09:08:13;101085.0;;;0.93;94.38
68376;BME280;55318;52.068;5.188;2022-12-10T09:09:50;101096.0;;;0.95;94.59
68376;BME280;55318;52.068;5.188;2022-12-10T09:13:05;101095.0;;;0.7;95.23
68376;BME280;55318;52.068;5.188;2022-12-10T09:14:42;101096.0;;;0.6;95.26
68376;BME280;55318;52.068;5.188;2022-12-10T09:16:18;101092.0;;;0.4;96.5
68376;BME280;55318;52.068;5.188;2022-12-10T09:17:56;101093.0;;;0.56;96.54
68376;BME280;55318;52.068;5.188;2022-12-10T09:21:10;101093.0;;;0.46;96.75
68376;BME280;55318;52.068;5.188;2022-12-10T09:22:50;101098.0;;;0.62;96.41
68376;BME280;55318;52.068;5.188;2022-12-10T09:24:27;101097.0;;;0.57;96.24
68376;BME280;55318;52.068;5.188;2022-12-10T09:27:43;101107.0;;;0.71;95.85
68376;BME280;55318;52.068;5.188;2022-12-10T09:29:20;101111.0;;;0.86;95.04
68376;BME280;55318;52.068;5.188;2022-12-10T09:30:57;101114.0;;;0.85;95.19
68376;BME280;55318;52.068;5.188;2022-12-10T09:32:34;101110.0;;;1.02;94.76
68376;BME280;55318;52.068;5.188;2022-12-10T09:35:46;101113.0;;;0.96;94.6
68376;BME280;55318;52.068;5.188;2022-12-10T09:37:22;101113.0;;;0.86;94.69
68376;BME280;55318;52.068;5.188;2022-12-10T09:38:58;101121.0;;;0.89;94.68
68376;BME280;55318;52.068;5.188;2022-12-10T09:42:27;101115.0;;;0.65;95.79
68376;BME280;55318;52.068;5.188;2022-12-10T09:44:12;101113.0;;;0.63;95.78
68376;BME280;55318;52.068;5.188;2022-12-10T09:45:58;101121.0;;;0.45;96.39
68376;BME280;55318;52.068;5.188;2022-12-10T09:47:48;101117.0;;;0.27;96.96
68376;BME280;55318;52.068;5.188;2022-12-10T09:49:35;101121.0;;;0.04;98.17
68376;BME280;55318;52.068;5.188;2022-12-10T09:51:20;101123.0;;;0.03;98.75
68376;BME280;55318;52.068;5.188;2022-12-10T09:54:40;101122.0;;;0.32;98.29
68376;BME280;55318;52.068;5.188;2022-12-10T09:56:22;101119.0;;;0.46;97.62
68376;BME280;55318;52.068;5.188;2022-12-10T09:57:59;101121.0;;;0.59;96.94
68376;BME280;55318;52.068;5.188;2022-12-10T09:59:40;101121.0;;;0.74;96.48
68376;BME280;55318;52.068;5.188;2022-12-10T10:03:01;101124.0;;;0.88;95.67
68376;BME280;55318;52.068;5.188;2022-12-10T10:04:38;101120.0;;;0.82;95.2
68376;BME280;55318;52.068;5.188;2022-12-10T10:06:15;101125.0;;;0.92;94.87
68376;BME280;55318;52.068;5.188;2022-12-10T10:09:38;101125.0;;;0.88;94.48
68376;BME280;55318;52.068;5.188;2022-12-10T10:11:18;101133.0;;;0.98;94.31
68376;BME280;55318;52.068;5.188;2022-12-10T10:13:00;101130.0;;;1.06;94.24
68376;BME280;55318;52.068;5.188;2022-12-10T10:14:37;101135.0;;;0.86;94.65
68376;BME280;55318;52.068;5.188;2022-12-10T10:18:02;101137.0;;;0.85;94.45
68376;BME280;55318;52.068;5.188;2022-12-10T10:19:42;101136.0;;;0.87;95.0
68376;BME280;55318;52.068;5.188;2022-12-10T10:21:22;101128.0;;;0.88;95.18
68376;BME280;55318;52.068;5.188;2022-12-10T10:22:59;101133.0;;;0.68;95.9
68376;BME280;55318;52.068;5.188;2022-12-10T10:26:16;101130.0;;;0.44;96.78
68376;BME280;55318;52.068;5.188;2022-12-10T10:27:53;101131.0;;;0.72;96.35
68376;BME280;55318;52.068;5.188;2022-12-10T10:29:29;101136.0;;;0.79;95.6
68376;BME280;55318;52.068;5.188;2022-12-10T10:31:16;101137.0;;;1.01;95.2
68376;BME280;55318;52.068;5.188;2022-12-10T10:34:33;101133.0;;;1.15;94.89
68376;BME280;55318;52.068;5.188;2022-12-10T10:36:09;101134.0;;;1.15;94.87
68376;BME280;55318;52.068;5.188;2022-12-10T10:37:46;101131.0;;;0.99;94.92
68376;BME280;55318;52.068;5.188;2022-12-10T10:39:27;101134.0;;;0.85;95.83
68376;BME280;55318;52.068;5.188;2022-12-10T10:42:42;101135.0;;;0.81;95.8
68376;BME280;55318;52.068;5.188;2022-12-10T10:44:23;101132.0;;;0.82;96.01
68376;BME280;55318;52.068;5.188;2022-12-10T10:46:04;101132.0;;;0.73;96.42
68376;BME280;55318;52.068;5.188;2022-12-10T10:49:22;101131.0;;;0.97;95.86
68376;BME280;55318;52.068;5.188;2022-12-10T10:51:07;101130.0;;;0.58;96.51
68376;BME280;55318;52.068;5.188;2022-12-10T10:52:44;101130.0;;;0.38;96.89
68376;BME280;55318;52.068;5.188;2022-12-10T10:54:39;101131.0;;;0.49;97.51
68376;BME280;55318;52.068;5.188;2022-12-10T10:56:18;101135.0;;;0.41;97.48
68376;BME280;55318;52.068;5.188;2022-12-10T10:59:34;101139.0;;;0.15;98.37
68376;BME280;55318;52.068;5.188;2022-12-10T11:01:11;101135.0;;;0.29;98.78
68376;BME280;55318;52.068;5.188;2022-12-10T11:02:48;101138.0;;;0.21;99.41
68376;BME280;55318;52.068;5.188;2022-12-10T11:06:07;101140.0;;;0.23;99.36
68376;BME280;55318;52.068;5.188;2022-12-10T11:07:43;101140.0;;;0.42;99.01
68376;BME280;55318;52.068;5.188;2022-12-10T11:09:23;101137.0;;;0.58;98.14
68376;BME280;55318;52.068;5.188;2022-12-10T11:11:04;101140.0;;;0.64;97.6
68376;BME280;55318;52.068;5.188;2022-12-10T11:14:31;101133.0;;;0.6;97.78
68376;BME280;55318;52.068;5.188;2022-12-10T11:16:15;101130.0;;;0.37;98.56
68376;BME280;55318;52.068;5.188;2022-12-10T11:17:54;101130.0;;;0.59;97.92
68376;BME280;55318;52.068;5.188;2022-12-10T11:19:31;101130.0;;;0.65;97.52
68376;BME280;55318;52.068;5.188;2022-12-10T11:22:55;101128.0;;;0.63;97.63
68376;BME280;55318;52.068;5.188;2022-12-10T11:24:32;101128.0;;;0.73;97.16
68376;BME280;55318;52.068;5.188;2022-12-10T11:26:19;101132.0;;;0.61;97.52
68376;BME280;55318;52.068;5.188;2022-12-10T11:28:09;101126.0;;;0.51;97.84
68376;BME280;55318;52.068;5.188;2022-12-10T11:29:59;101125.0;;;0.6;98.25
68376;BME280;55318;52.068;5.188;2022-12-10T11:33:34;101119.0;;;0.65;97.4
68376;BME280;55318;52.068;5.188;2022-12-10T11:35:28;101121.0;;;0.86;96.7
68376;BME280;55318;52.068;5.188;2022-12-10T11:37:22;101120.0;;;0.83;96.89
68376;BME280;55318;52.068;5.188;2022-12-10T11:39:18;101117.0;;;1.05;96.41